Time;durP1;ratioP1;P1;durP2;ratioP2;P2;SDS_P1;SDS_P2;PMS_P1;PMS_P2;Temp;Humidity;BMP_temperature;BMP_pressure;BME280_temperature;BME280_humidity;BME280_pressure;Samples;Min_cycle;Max_cycle;Signal;HPM_P1;HPM_P2
2021/06/20 00:09:07;;;;;;;5.18;2.50;;;;;;;19.19;51.50;100411.28;1221987;22;21519;-84
2021/06/20 00:29:31;;;;;;;5.03;1.77;;;;;;;19.10;51.33;100392.47;1222124;22;21454;-84
2021/06/20 00:32:30;;;;;;;4.57;2.00;;;;;;;19.10;53.28;100392.47;1129251;22;20174;-84
2021/06/20 00:35:22;;;;;;;4.65;2.22;;;;;;;19.10;51.94;100398.63;1205064;22;21957;-84
2021/06/20 00:41:03;;;;;;;5.05;2.42;;;;;;;19.10;51.88;100392.47;1223248;22;21949;-83
2021/06/20 01:02:39;;;;;;;5.00;2.53;;;;;;;19.02;51.87;100373.59;1215493;22;22081;-85
2021/06/20 01:11:47;;;;;;;5.80;2.63;;;;;;;18.97;52.49;100365.09;1211793;22;21509;-83
2021/06/20 01:33:22;;;;;;;6.13;3.10;;;;;;;18.87;55.40;100339.22;644257;22;20274;-84
2021/06/20 02:00:46;;;;;;;8.27;4.05;;;;;;;18.74;53.84;100332.13;722776;22;21517;-84
2021/06/20 02:13:02;;;;;;;3.90;2.28;;;;;;;18.69;53.72;100319.19;1224015;22;22049;-84
2021/06/20 02:34:38;;;;;;;8.05;4.55;;;;;;;18.57;54.35;100322.59;1221467;22;21491;-84
2021/06/20 02:46:43;;;;;;;5.38;2.78;;;;;;;18.48;54.61;100310.78;1221612;22;21986;-84
2021/06/20 02:55:51;;;;;;;6.05;2.90;;;;;;;18.41;54.58;100315.59;1216748;22;21490;-84
2021/06/20 03:07:55;;;;;;;6.90;3.47;;;;;;;18.34;55.06;100297.53;723130;22;21545;-84
2021/06/20 03:19:57;;;;;;;6.68;3.60;;;;;;;18.26;54.42;100308.59;721149;22;21497;-83
2021/06/20 03:47:32;;;;;;;4.25;2.22;;;;;;;18.05;54.57;100317.84;1222526;22;21458;-85
2021/06/20 04:04:58;;;;;;;4.47;1.85;;;;;;;17.96;55.03;100339.50;1216658;22;21454;-84
2021/06/20 04:32:54;;;;;;;5.88;2.80;;;;;;;17.84;56.45;100356.91;1146793;22;20188;-85
2021/06/20 04:44:59;;;;;;;5.63;2.97;;;;;;;17.86;56.29;100371.75;1220056;22;21815;-85
2021/06/20 05:22:05;;;;;;;7.10;3.22;;;;;;;18.12;58.22;100382.56;1222589;22;21896;-85
2021/06/20 05:34:20;;;;;;;6.25;2.90;;;;;;;18.21;59.42;100402.34;1147302;22;20176;-84
2021/06/20 05:40:17;;;;;;;7.35;3.95;;;;;;;18.27;58.92;100402.81;723678;22;21523;-84
2021/06/20 05:58:36;;;;;;;3.70;2.05;;;;;;;18.41;58.44;100384.34;1219746;22;21442;-84
2021/06/20 06:04:36;;;;;;;6.70;3.45;;;;;;;18.49;59.11;100396.22;1222225;22;21573;-84
2021/06/20 06:07:27;;;;;;;6.07;3.55;;;;;;;18.52;58.80;100399.56;1215016;22;21389;-84
2021/06/20 06:32:13;;;;;;;4.93;2.83;;;;;;;19.01;58.28;100390.41;1213059;22;21450;-84
2021/06/20 06:38:07;;;;;;;6.40;2.80;;;;;;;19.13;58.44;100400.22;1222925;22;21518;-84
2021/06/20 07:20:21;;;;;;;6.20;1.60;;;;;;;19.86;57.00;100424.66;1222741;22;21558;-84
2021/06/20 07:32:30;;;;;;;6.00;2.40;;;;;;;20.03;55.90;100435.97;1221935;22;21554;-85
2021/06/20 08:21:03;;;;;;;4.35;1.92;;;;;;;21.09;54.12;100433.09;1283512;22;20293;-80
2021/06/20 08:23:37;;;;;;;6.57;2.80;;;;;;;21.19;53.94;100438.59;1200360;23;20181;-82
2021/06/20 08:41:47;;;;;;;3.35;2.20;;;;;;;21.76;51.94;100433.56;1212546;22;21459;-85
2021/06/20 09:12:43;;;;;;;6.70;2.63;;;;;;;22.30;50.20;100448.19;1215559;22;21484;-85
2021/06/20 09:34:02;;;;;;;7.25;2.67;;;;;;;22.36;49.83;100453.06;1215500;22;21440;-85
2021/06/20 09:52:27;;;;;;;3.35;1.70;;;;;;;23.53;48.18;100458.97;1223041;22;21467;-85
2021/06/20 10:13:49;;;;;;;5.90;2.20;;;;;;;25.46;44.61;100472.06;3730757;22;20026;-84
2021/06/20 10:19:49;;;;;;;4.72;2.38;;;;;;;26.22;44.51;100479.53;1218332;22;22039;-85
2021/06/20 10:44:14;;;;;;;5.18;1.92;;;;;;;28.72;39.98;100496.44;1224672;22;21481;-84
2021/06/20 10:56:27;;;;;;;5.50;2.53;;;;;;;29.79;37.08;100506.78;1218812;22;21462;-85
2021/06/20 11:30:42;;;;;;;5.50;2.50;;;;;;;30.78;34.35;100524.78;1210083;22;21523;-84
2021/06/20 11:33:25;;;;;;;3.97;2.00;;;;;;;30.74;33.01;100513.47;1256073;22;20275;-85
2021/06/20 12:13:02;;;;;;;21.05;3.05;;;;;;;34.39;28.31;100538.75;1249806;22;20178;31
2021/06/20 12:15:58;;;;;;;3.83;2.03;;;;;;;34.77;29.69;100539.31;3700993;22;20045;-83
2021/06/20 12:18:28;;;;;;;5.40;2.00;;;;;;;34.82;27.49;100534.13;3582590;39;20061;-83
2021/06/20 12:23:54;;;;;;;7.38;2.40;;;;;;;35.22;25.11;100540.69;3626495;22;20055;-86
2021/06/20 12:26:30;;;;;;;7.90;2.40;;;;;;;35.49;26.13;100543.59;3754185;22;20077;31
2021/06/20 12:29:04;;;;;;;6.05;2.40;;;;;;;35.53;24.60;100544.84;3536438;40;22048;-84
2021/06/20 12:31:31;;;;;;;6.28;2.40;;;;;;;35.51;24.32;100533.34;3561181;40;20119;-84
2021/06/20 12:34:02;;;;;;;4.47;1.83;;;;;;;35.76;25.13;100544.53;3676490;22;20039;-86
2021/06/20 12:39:40;;;;;;;3.28;1.65;;;;;;;36.05;25.30;100555.13;3676227;22;20055;-83
2021/06/20 12:42:42;;;;;;;3.40;1.70;;;;;;;36.19;26.24;100560.56;3617853;22;20040;31
2021/06/20 12:45:35;;;;;;;5.90;2.30;;;;;;;36.23;25.99;100550.97;1210889;22;21525;-85
2021/06/20 12:51:05;;;;;;;3.83;1.73;;;;;;;36.07;25.71;100550.31;3569810;40;20049;-84
2021/06/20 12:59:36;;;;;;;5.60;1.90;;;;;;;35.75;25.15;100557.28;1452713;22;20196;31
2021/06/20 13:02:07;;;;;;;3.72;1.83;;;;;;;35.59;24.28;100554.94;3722249;22;20037;-84
2021/06/20 13:10:33;;;;;;;4.03;1.60;;;;;;;35.76;24.99;100561.69;3753544;23;21057;-83
2021/06/20 13:13:06;;;;;;;2.75;1.52;;;;;;;35.90;25.25;100567.16;3755815;23;20422;-86
2021/06/20 13:15:35;;;;;;;5.47;2.20;;;;;;;35.94;23.95;100560.28;3761319;22;20037;-84
2021/06/20 13:18:26;;;;;;;3.83;2.00;;;;;;;36.30;24.98;100562.72;3815174;22;20068;-86
2021/06/20 13:21:18;;;;;;;4.72;1.95;;;;;;;36.47;25.19;100564.00;3714662;22;20056;31
2021/06/20 13:24:11;;;;;;;4.13;1.87;;;;;;;36.64;25.07;100564.44;3767381;22;20327;-85
2021/06/20 13:26:44;;;;;;;5.78;2.65;;;;;;;36.55;23.57;100543.94;3788656;22;20023;-84
2021/06/20 13:29:28;;;;;;;4.55;2.30;;;;;;;36.77;23.66;100564.44;3745993;22;20040;-84
2021/06/20 13:32:20;;;;;;;4.30;2.20;;;;;;;36.84;24.22;100570.69;3704282;22;20101;-83
2021/06/20 13:41:17;;;;;;;4.30;1.88;;;;;;;36.94;24.49;100564.88;3756917;22;20057;-84
2021/06/20 13:43:47;;;;;;;5.60;2.28;;;;;;;36.90;22.90;100571.78;1504035;22;20186;-84
2021/06/20 13:46:17;;;;;;;5.65;2.45;;;;;;;36.89;21.93;100568.22;3815871;22;20028;-85
2021/06/20 13:48:50;;;;;;;5.32;2.30;;;;;;;37.00;23.59;100563.19;3687337;22;20033;-84
2021/06/20 13:51:21;;;;;;;7.03;3.05;;;;;;;36.92;22.95;100560.69;3728486;22;20072;-83
2021/06/20 14:06:09;;;;;;;5.13;2.90;;;;;;;37.58;23.61;100571.47;1363552;22;21338;-86
2021/06/20 14:11:45;;;;;;;8.98;2.75;;;;;;;37.83;22.27;100572.44;1296244;23;20250;-84
2021/06/20 14:20:21;;;;;;;4.75;2.28;;;;;;;38.04;22.31;100567.72;3669835;22;19940;-86
2021/06/20 14:23:17;;;;;;;7.35;2.58;;;;;;;38.13;23.19;100574.59;1283584;22;21339;-86
2021/06/20 14:28:53;;;;;;;5.93;3.17;;;;;;;37.90;21.77;100570.50;3680963;22;20069;-87
2021/06/20 14:31:44;;;;;;;3.75;2.15;;;;;;;37.93;23.04;100568.41;1288633;22;20231;-86
2021/06/20 14:37:25;;;;;;;6.40;3.40;;;;;;;38.07;22.52;100561.81;1231077;22;20202;-88
2021/06/20 14:42:50;;;;;;;4.70;2.47;;;;;;;38.14;21.39;100559.91;1218026;22;20258;-88
2021/06/20 14:48:35;;;;;;;6.03;2.70;;;;;;;38.30;20.65;100564.84;3666241;22;20036;-87
2021/06/20 14:51:10;;;;;;;7.05;3.33;;;;;;;38.30;21.20;100561.28;3617814;23;20049;31
2021/06/20 14:57:04;;;;;;;5.78;3.22;;;;;;;38.22;21.92;100556.91;1287394;23;20206;31
2021/06/20 14:59:55;;;;;;;5.85;3.28;;;;;;;38.23;22.02;100563.22;3639579;22;20076;-87
2021/06/20 15:02:31;;;;;;;5.25;3.15;;;;;;;38.18;20.92;100561.13;3644239;22;20040;-87
2021/06/20 15:07:41;;;;;;;5.20;2.83;;;;;;;38.26;21.05;100563.59;3670246;22;19953;-87
2021/06/20 15:10:12;;;;;;;6.17;3.20;;;;;;;38.23;20.60;100569.50;3668220;22;20040;-87
2021/06/20 15:22:11;;;;;;;9.88;2.72;;;;;;;38.12;20.69;100573.75;3657442;23;20052;-84
2021/06/20 15:24:37;;;;;;;4.45;2.30;;;;;;;37.94;19.90;100561.91;2408299;22;20028;-81
2021/06/20 15:27:19;;;;;;;4.75;2.28;;;;;;;38.05;21.02;100569.38;3697330;22;20055;-86
2021/06/20 15:29:46;;;;;;;6.03;2.55;;;;;;;37.89;19.88;100563.38;3709223;22;20051;-86
2021/06/20 15:32:45;;;;;;;5.10;2.67;;;;;;;38.02;20.74;100572.53;3665788;22;20129;-83
2021/06/20 15:35:17;;;;;;;6.10;3.00;;;;;;;37.99;20.83;100567.53;3716019;22;20020;-86
2021/06/20 15:41:03;;;;;;;5.72;2.70;;;;;;;38.13;22.00;100560.97;3714304;22;20054;-83
2021/06/20 15:46:29;;;;;;;3.88;2.30;;;;;;;38.20;21.04;100559.00;3699050;22;20025;-86
2021/06/20 15:49:03;;;;;;;4.95;2.67;;;;;;;38.28;20.49;100577.03;3695042;22;20049;-83
2021/06/20 15:51:44;;;;;;;3.92;2.00;;;;;;;38.29;20.72;100574.09;3717434;23;20057;-86
2021/06/20 15:54:11;;;;;;;5.43;2.95;;;;;;;38.21;20.22;100576.22;3685692;22;20068;-82
2021/06/20 15:56:41;;;;;;;4.32;2.60;;;;;;;38.32;20.50;100568.22;3725291;22;20048;-85
2021/06/20 15:59:08;;;;;;;4.45;2.25;;;;;;;38.33;20.91;100578.06;3727503;22;20861;-82
2021/06/20 16:01:36;;;;;;;5.65;2.67;;;;;;;38.50;19.55;100575.63;3771370;22;20045;-84
2021/06/20 16:04:27;;;;;;;3.00;1.88;;;;;;;38.80;20.48;100586.75;3746603;22;20756;-82
2021/06/20 16:06:59;;;;;;;8.13;3.20;;;;;;;38.80;19.09;100578.56;3772164;22;20036;-83
2021/06/20 16:09:26;;;;;;;4.53;2.67;;;;;;;38.72;18.88;100567.88;3743772;22;21239;-82
2021/06/20 16:12:18;;;;;;;4.35;2.30;;;;;;;38.95;20.80;100577.41;3771924;22;20103;-82
2021/06/20 16:14:45;;;;;;;5.65;2.40;;;;;;;38.76;20.13;100577.34;3703812;22;20036;-84
2021/06/20 16:17:12;;;;;;;4.13;2.40;;;;;;;38.72;18.90;100576.06;3586157;39;20048;-82
2021/06/20 16:19:40;;;;;;;4.57;2.20;;;;;;;38.75;19.33;100586.59;3597596;39;20046;-85
2021/06/20 16:22:09;;;;;;;3.97;2.20;;;;;;;38.69;19.51;100584.72;3594572;39;20098;-84
2021/06/20 16:24:42;;;;;;;3.00;2.13;;;;;;;38.66;19.81;100586.00;3577324;39;20083;-84
2021/06/20 16:27:09;;;;;;;3.72;2.00;;;;;;;38.50;18.95;100582.97;3593016;39;20064;-83
2021/06/20 16:29:36;;;;;;;5.72;2.03;;;;;;;38.43;18.51;100580.31;3598932;39;20097;-84
2021/06/20 16:32:05;;;;;;;5.57;2.67;;;;;;;38.46;17.96;100581.75;3596150;39;20020;-83
2021/06/20 16:34:36;;;;;;;5.30;2.50;;;;;;;38.54;18.71;100582.31;3592720;39;20448;-84
2021/06/20 16:37:05;;;;;;;3.20;1.88;;;;;;;38.54;18.81;100589.69;3588505;39;20692;-82
2021/06/20 16:39:33;;;;;;;4.47;2.08;;;;;;;38.50;18.93;100604.81;3592031;39;20060;-82
2021/06/20 16:42:00;;;;;;;4.00;2.20;;;;;;;38.44;17.84;100592.88;3591952;39;20063;-83
2021/06/20 16:44:27;;;;;;;3.88;1.85;;;;;;;38.46;18.15;100600.84;3591174;39;20048;-83
2021/06/20 16:47:00;;;;;;;3.15;1.48;;;;;;;38.53;18.23;100596.19;3580866;39;20530;-83
2021/06/20 16:49:29;;;;;;;4.95;2.05;;;;;;;38.42;17.13;100600.44;3604375;39;20094;-83
2021/06/20 16:51:56;;;;;;;3.42;1.67;;;;;;;38.23;16.85;100585.88;3596763;39;20990;-83
2021/06/20 16:54:23;;;;;;;2.95;1.70;;;;;;;38.11;17.11;100593.06;3591882;39;20055;-83
2021/06/20 16:56:50;;;;;;;2.50;1.25;;;;;;;38.07;17.06;100605.44;3580968;39;20052;-84
2021/06/20 16:59:17;;;;;;;3.33;1.65;;;;;;;37.70;17.22;100583.34;3585382;39;21041;-82
2021/06/20 17:16:21;;;;;;;2.75;1.42;;;;;;;36.31;18.24;100608.72;3572441;40;20045;-78
2021/06/20 17:18:50;;;;;;;3.83;1.60;;;;;;;36.22;18.77;100609.94;3527325;40;20061;-80
2021/06/20 17:21:17;;;;;;;4.32;1.65;;;;;;;36.06;19.39;100602.16;3544337;40;20058;-81
2021/06/20 17:24:09;;;;;;;2.22;1.38;;;;;;;36.09;19.88;100620.78;3553627;40;20057;-82
2021/06/20 17:26:39;;;;;;;4.70;1.85;;;;;;;35.94;18.99;100633.69;3549938;40;20885;-80
2021/06/20 17:29:08;;;;;;;3.17;1.75;;;;;;;35.77;19.73;100620.41;3545390;40;20544;-81
2021/06/20 17:31:37;;;;;;;9.82;2.22;;;;;;;35.68;19.47;100631.63;3545491;40;20353;-80
2021/06/20 17:34:06;;;;;;;5.25;1.88;;;;;;;35.69;18.96;100636.91;3533918;40;20054;-81
2021/06/20 17:36:33;;;;;;;3.40;1.75;;;;;;;35.60;19.38;100633.50;3543162;40;20135;-80
2021/06/20 17:39:05;;;;;;;3.72;1.70;;;;;;;35.61;19.87;100629.72;3534752;40;20387;-80
2021/06/20 17:41:33;;;;;;;3.70;1.65;;;;;;;35.51;19.62;100625.69;3539833;40;20069;-80
2021/06/20 17:44:02;;;;;;;3.92;1.75;;;;;;;35.40;19.69;100637.09;3546548;40;20406;-80
2021/06/20 17:46:29;;;;;;;3.88;1.80;;;;;;;35.19;20.43;100622.53;3544966;40;20058;-80
2021/06/20 17:49:00;;;;;;;3.13;2.05;;;;;;;35.23;20.73;100621.13;3545004;40;20062;-80
2021/06/20 17:51:30;;;;;;;4.47;1.90;;;;;;;35.15;20.68;100628.56;3540475;40;20050;-80
2021/06/20 17:53:57;;;;;;;3.53;1.92;;;;;;;35.01;20.80;100631.16;3550328;40;20049;-80
2021/06/20 17:56:26;;;;;;;4.90;2.08;;;;;;;34.99;20.14;100635.13;3541466;40;20486;-79
2021/06/20 17:58:53;;;;;;;3.90;2.00;;;;;;;34.88;20.45;100638.34;3551682;40;20148;-80
2021/06/20 18:01:28;;;;;;;5.15;2.25;;;;;;;34.87;20.98;100632.03;3548124;40;20140;-80
2021/06/20 18:03:55;;;;;;;4.75;2.20;;;;;;;34.69;21.40;100629.81;3523876;40;20070;-79
2021/06/20 18:06:24;;;;;;;9.20;2.80;;;;;;;34.67;21.97;100631.84;3545200;40;20086;-80
2021/06/20 18:08:51;;;;;;;4.22;1.73;;;;;;;34.44;21.16;100623.91;3541420;40;20442;-79
2021/06/20 18:11:19;;;;;;;7.80;2.00;;;;;;;34.36;21.56;100624.00;3547169;40;20061;-80
2021/06/20 18:13:46;;;;;;;6.18;2.25;;;;;;;34.27;21.41;100633.31;3538515;40;20079;-80
2021/06/20 18:16:13;;;;;;;3.17;1.77;;;;;;;34.11;21.74;100628.94;3533122;40;21518;-79
2021/06/20 18:18:40;;;;;;;5.07;1.98;;;;;;;33.94;22.12;100635.59;3548638;40;20042;-80
2021/06/20 18:21:09;;;;;;;2.97;1.73;;;;;;;33.72;22.11;100630.09;3535840;40;20156;-79
2021/06/20 18:23:36;;;;;;;4.20;1.98;;;;;;;33.43;22.25;100620.09;3551688;40;20140;-80
2021/06/20 18:26:04;;;;;;;3.20;1.95;;;;;;;33.19;22.57;100620.31;3543812;40;20371;-80
2021/06/20 18:28:32;;;;;;;3.50;2.00;;;;;;;32.91;23.08;100617.38;3543085;40;20050;-79
2021/06/20 18:31:00;;;;;;;4.78;2.25;;;;;;;32.65;23.26;100634.78;3551634;40;20057;-79
2021/06/20 18:33:28;;;;;;;3.88;2.20;;;;;;;32.32;23.33;100630.56;3547235;40;20058;-80
2021/06/20 18:35:57;;;;;;;4.68;2.10;;;;;;;32.06;23.89;100639.00;3547741;40;20051;-79
2021/06/20 18:38:25;;;;;;;4.75;2.20;;;;;;;31.74;24.09;100641.63;3550428;40;20521;-78
2021/06/20 18:40:55;;;;;;;6.13;2.15;;;;;;;31.51;24.20;100646.91;3540602;40;20882;-79
2021/06/20 18:43:22;;;;;;;4.93;1.98;;;;;;;31.20;24.58;100649.44;3555231;40;20058;-79
2021/06/20 18:45:50;;;;;;;5.82;2.28;;;;;;;30.90;25.28;100663.63;3541998;40;20050;-79
2021/06/20 18:48:20;;;;;;;5.00;2.03;;;;;;;30.53;25.44;100650.56;3549758;40;20498;-79
2021/06/20 18:50:53;;;;;;;3.38;1.83;;;;;;;30.19;25.75;100659.56;3547906;40;20066;-79
2021/06/20 18:53:24;;;;;;;4.70;2.30;;;;;;;29.87;25.80;100654.88;3539005;40;20132;-79
2021/06/20 18:56:05;;;;;;;4.50;1.98;;;;;;;29.53;26.10;100657.50;3550484;40;20697;-78
2021/06/20 18:58:32;;;;;;;3.00;1.48;;;;;;;29.16;26.70;100659.44;3536093;40;20067;-79
2021/06/20 19:01:01;;;;;;;4.80;2.17;;;;;;;28.92;27.82;100664.56;3532227;40;20054;-79
2021/06/20 19:03:28;;;;;;;5.55;2.20;;;;;;;28.60;28.02;100649.84;3536197;40;20094;-78
2021/06/20 19:05:59;;;;;;;7.55;1.88;;;;;;;28.29;27.94;100661.91;3556283;40;20100;-78
2021/06/20 19:08:28;;;;;;;4.88;2.20;;;;;;;28.02;28.32;100658.22;3525273;40;20065;-79
2021/06/20 19:10:58;;;;;;;5.90;2.28;;;;;;;27.70;28.92;100650.56;3545833;40;20086;-77
2021/06/20 19:13:25;;;;;;;3.97;1.88;;;;;;;27.53;30.42;100660.22;3547112;40;20065;-78
2021/06/20 19:15:52;;;;;;;5.70;2.40;;;;;;;27.29;29.50;100659.84;3549648;40;20142;-78
2021/06/20 19:18:19;;;;;;;3.28;1.65;;;;;;;27.07;30.93;100659.16;3546947;40;20444;-78
2021/06/20 19:20:46;;;;;;;3.70;2.17;;;;;;;26.85;30.27;100648.69;3540675;40;20066;-78
2021/06/20 19:23:13;;;;;;;3.88;1.95;;;;;;;26.72;31.16;100661.53;3543558;40;20058;-77
2021/06/20 19:25:43;;;;;;;5.28;2.20;;;;;;;26.57;30.50;100658.41;3542630;40;20438;-78
2021/06/20 19:28:12;;;;;;;3.58;2.05;;;;;;;26.40;31.29;100666.09;3552796;40;20054;-78
2021/06/20 19:30:44;;;;;;;5.22;2.25;;;;;;;26.18;30.67;100649.41;3550236;40;20054;-78
2021/06/20 19:33:19;;;;;;;3.95;1.92;;;;;;;26.06;30.78;100657.56;3546747;40;20089;-78
2021/06/20 19:35:49;;;;;;;5.90;2.63;;;;;;;25.92;31.94;100659.75;3532991;40;20057;-78
2021/06/20 19:38:19;;;;;;;5.32;2.33;;;;;;;25.77;32.23;100669.97;3527467;40;20748;-78
2021/06/20 19:40:47;;;;;;;3.10;1.58;;;;;;;25.63;31.52;100671.97;3542403;40;20065;-78
2021/06/20 19:43:15;;;;;;;5.45;2.63;;;;;;;25.46;32.06;100667.22;3528527;40;20027;-78
2021/06/20 19:45:46;;;;;;;4.97;2.03;;;;;;;25.29;32.86;100662.47;3540425;40;20054;-78
2021/06/20 19:48:18;;;;;;;4.80;2.30;;;;;;;25.18;32.19;100670.56;3547160;40;20062;-78
2021/06/20 19:50:49;;;;;;;4.68;2.05;;;;;;;25.05;32.90;100668.91;3529641;40;20121;-79
2021/06/20 19:55:32;;;;;;;6.25;2.53;;;;;;;24.75;34.77;100669.63;3590140;39;20361;-74
2021/06/20 19:58:00;;;;;;;5.40;2.50;;;;;;;24.55;34.92;100673.09;3581746;39;20052;-75
2021/06/20 20:00:33;;;;;;;5.47;2.35;;;;;;;24.32;34.50;100677.56;3579171;39;20321;-75
2021/06/20 20:03:02;;;;;;;5.45;1.92;;;;;;;24.11;35.59;100684.63;3576228;39;20096;-75
2021/06/20 20:05:32;;;;;;;4.65;1.95;;;;;;;23.92;35.51;100690.56;3582783;39;20052;-76
2021/06/20 20:08:00;;;;;;;5.22;2.25;;;;;;;23.75;35.19;100699.91;3577164;39;20457;-76
2021/06/20 20:10:34;;;;;;;7.53;2.30;;;;;;;23.56;35.59;100701.28;3582845;39;20142;-75
2021/06/20 20:13:05;;;;;;;4.03;1.88;;;;;;;23.41;36.12;100701.63;3561302;40;20097;-76
2021/06/20 20:15:32;;;;;;;3.70;1.80;;;;;;;23.19;37.32;100694.41;3583216;39;20077;-76
2021/06/20 20:17:59;;;;;;;4.88;2.40;;;;;;;23.11;36.83;100710.13;3583063;39;20061;-76
2021/06/20 20:20:29;;;;;;;3.95;1.50;;;;;;;22.98;36.97;100719.03;3574182;40;20061;-75
2021/06/20 20:22:56;;;;;;;4.38;1.80;;;;;;;22.84;37.70;100707.66;3583063;40;22802;-75
2021/06/20 20:25:25;;;;;;;4.22;1.77;;;;;;;22.73;37.68;100711.13;3561721;40;20069;-76
2021/06/20 20:27:54;;;;;;;4.05;1.83;;;;;;;22.62;37.59;100719.06;3567673;40;20140;-75
2021/06/20 20:30:21;;;;;;;7.15;2.00;;;;;;;22.47;38.48;100711.22;3583560;39;20052;-76
2021/06/20 20:32:54;;;;;;;3.67;1.73;;;;;;;22.40;38.69;100719.72;3585516;39;20048;-75
2021/06/20 20:35:21;;;;;;;4.45;2.00;;;;;;;22.30;39.20;100735.50;3582375;39;20106;-75
2021/06/20 20:37:49;;;;;;;4.47;1.80;;;;;;;22.19;38.72;100735.41;3590900;39;20056;-75
2021/06/20 20:40:16;;;;;;;4.75;1.83;;;;;;;22.08;39.54;100732.63;3590877;39;20133;-75
2021/06/20 20:42:45;;;;;;;6.30;2.33;;;;;;;21.99;39.43;100740.28;3590975;39;20092;-75
2021/06/20 20:45:13;;;;;;;3.55;1.67;;;;;;;21.91;40.29;100745.31;3590808;39;20049;-75
2021/06/20 20:47:41;;;;;;;3.33;1.67;;;;;;;21.84;40.01;100749.31;3589126;39;20755;-76
2021/06/20 20:50:10;;;;;;;6.13;1.80;;;;;;;21.75;40.47;100755.31;3594016;39;20356;-75
2021/06/20 20:53:05;;;;;;;4.82;1.80;;;;;;;21.65;38.02;100759.56;3589281;39;20593;-75
2021/06/20 20:55:32;;;;;;;4.03;1.70;;;;;;;21.50;40.35;100751.66;3579682;39;20070;-76
2021/06/20 20:58:04;;;;;;;5.22;1.80;;;;;;;21.45;40.32;100772.38;3584153;39;20166;-75
2021/06/20 21:00:34;;;;;;;5.05;1.83;;;;;;;21.32;40.43;100768.81;3589057;39;20052;-75
2021/06/20 21:03:05;;;;;;;3.97;1.88;;;;;;;21.28;39.97;100777.91;3582034;39;20142;-75
2021/06/20 21:05:34;;;;;;;3.58;1.85;;;;;;;21.19;41.27;100789.16;3590900;39;20118;-75
2021/06/20 21:08:02;;;;;;;4.05;1.60;;;;;;;21.08;41.49;100781.88;3577938;39;20086;-75
2021/06/20 21:10:29;;;;;;;3.70;1.77;;;;;;;20.98;41.67;100784.28;3585241;39;20146;-75
2021/06/20 21:12:57;;;;;;;7.20;2.67;;;;;;;20.88;41.40;100791.16;3584380;39;20048;-75
2021/06/20 21:15:26;;;;;;;4.03;1.80;;;;;;;20.82;42.23;100796.81;3583672;39;20044;-75
2021/06/20 21:17:54;;;;;;;5.20;1.80;;;;;;;20.74;43.21;100799.13;3584025;39;20137;-75
2021/06/20 21:20:23;;;;;;;4.85;1.92;;;;;;;20.64;42.69;100798.00;3574637;39;20060;-75
2021/06/20 21:22:53;;;;;;;5.90;2.42;;;;;;;20.53;43.12;100795.16;3582195;39;20072;-76
2021/06/20 21:25:21;;;;;;;5.45;2.47;;;;;;;20.42;43.87;100801.94;3586116;39;20064;-76
2021/06/20 21:27:48;;;;;;;4.05;1.75;;;;;;;20.34;43.16;100796.28;3569460;39;20358;-75
2021/06/20 21:30:21;;;;;;;4.47;1.90;;;;;;;20.22;43.13;100797.03;3552900;40;20057;-75
2021/06/20 21:32:49;;;;;;;4.88;2.03;;;;;;;20.16;45.09;100803.56;3548175;40;20280;-75
2021/06/20 21:35:16;;;;;;;5.40;2.05;;;;;;;20.08;44.70;100805.00;3546368;40;20045;-75
2021/06/20 21:37:44;;;;;;;;;;;;;;;19.99;40.51;100802.91;3561298;40;20104;-74
2021/06/20 21:40:18;;;;;;;5.55;1.88;;;;;;;19.90;43.18;100802.50;3561872;40;20463;-75
2021/06/20 21:42:49;;;;;;;4.45;2.05;;;;;;;19.82;43.95;100804.75;3558424;40;20069;-74
2021/06/20 21:45:21;;;;;;;6.00;2.13;;;;;;;19.76;44.09;100807.75;3558541;40;20056;-74
2021/06/20 21:47:49;;;;;;;6.38;2.60;;;;;;;19.66;44.63;100793.34;3549936;40;20108;-74
2021/06/20 21:50:18;;;;;;;3.58;1.65;;;;;;;19.63;44.44;100814.75;3563052;40;20046;-74
2021/06/20 21:52:48;;;;;;;4.15;1.88;;;;;;;19.54;44.70;100810.78;3563044;40;20061;-75
2021/06/20 21:55:19;;;;;;;5.70;2.50;;;;;;;19.45;44.39;100817.47;3554644;40;20089;-74
2021/06/20 21:57:50;;;;;;;5.68;2.30;;;;;;;19.40;44.16;100821.31;3561172;40;20081;-75
2021/06/20 22:00:26;;;;;;;3.60;1.80;;;;;;;19.30;43.28;100821.00;3560217;40;20105;-75
2021/06/20 22:02:53;;;;;;;4.80;2.00;;;;;;;19.25;45.96;100836.28;3557269;40;20049;-75
2021/06/20 22:05:21;;;;;;;4.20;1.73;;;;;;;19.18;45.47;100837.59;3557240;40;20049;-75
2021/06/20 22:07:49;;;;;;;4.38;1.90;;;;;;;19.09;44.45;100838.09;3551396;40;20065;-74
2021/06/20 22:10:23;;;;;;;5.13;2.33;;;;;;;19.06;44.69;100840.91;3565637;40;20111;-75
2021/06/20 22:12:51;;;;;;;5.45;2.22;;;;;;;19.00;45.78;100843.91;3550803;40;20065;-75
2021/06/20 22:15:20;;;;;;;3.50;1.48;;;;;;;18.91;45.20;100846.13;3552705;40;20050;-75
2021/06/20 22:17:47;;;;;;;6.28;2.13;;;;;;;18.84;46.04;100851.84;3563830;40;20059;-76
2021/06/20 22:20:15;;;;;;;6.30;2.50;;;;;;;18.78;47.01;100847.72;3569088;40;20053;-75
2021/06/20 22:22:44;;;;;;;6.05;2.45;;;;;;;18.73;46.54;100846.28;3564928;40;20058;-76
2021/06/20 22:25:14;;;;;;;6.65;2.80;;;;;;;18.67;46.16;100853.56;3556829;40;20143;-77
2021/06/20 22:27:45;;;;;;;7.90;2.97;;;;;;;18.62;47.46;100852.13;3564962;40;20571;-77
2021/06/20 22:30:15;;;;;;;9.65;3.10;;;;;;;18.55;48.28;100848.97;3548080;40;20096;-76
2021/06/20 22:32:46;;;;;;;10.43;3.55;;;;;;;18.47;47.02;100847.66;3563692;40;20049;-76
2021/06/20 22:35:13;;;;;;;6.05;2.63;;;;;;;18.44;47.80;100847.78;3564467;40;20049;-76
2021/06/20 22:37:42;;;;;;;9.45;4.00;;;;;;;18.37;48.01;100850.78;3547390;40;20049;-76
2021/06/20 22:40:11;;;;;;;9.25;3.22;;;;;;;18.29;48.76;100838.88;3553441;40;20065;-76
2021/06/20 22:42:39;;;;;;;8.00;2.72;;;;;;;18.26;48.52;100839.91;3554077;40;20054;-76
2021/06/20 22:45:09;;;;;;;9.20;3.40;;;;;;;18.27;48.53;100852.19;3562569;40;20087;-76
2021/06/20 22:47:35;;;;;;;8.68;4.32;;;;;;;18.21;49.62;100841.94;3564643;40;20061;-76
2021/06/20 22:50:07;;;;;;;7.75;3.20;;;;;;;18.20;48.49;100856.09;3561770;40;20454;-76
2021/06/20 22:52:35;;;;;;;4.88;2.40;;;;;;;18.16;49.32;100849.25;3563495;40;20079;-75
2021/06/20 22:55:04;;;;;;;;;;;;;;;18.11;44.84;100840.72;3565947;40;20498;-76
2021/06/20 22:57:32;;;;;;;6.25;2.60;;;;;;;18.06;48.89;100850.66;3558853;40;20209;-76
2021/06/20 22:59:59;;;;;;;7.55;2.88;;;;;;;18.00;49.66;100848.34;3550512;40;20132;-76
2021/06/20 23:02:53;;;;;;;6.85;2.70;;;;;;;17.95;46.99;100860.94;3565044;40;20157;-77
2021/06/20 23:05:28;;;;;;;8.38;3.13;;;;;;;17.84;48.23;100854.41;3566106;40;20049;-76
2021/06/20 23:07:56;;;;;;;8.60;3.05;;;;;;;17.76;50.29;100861.84;3555689;40;20054;-76
2021/06/20 23:10:25;;;;;;;7.72;3.55;;;;;;;17.69;50.92;100849.84;3562708;40;20049;-76
2021/06/20 23:12:55;;;;;;;7.05;3.05;;;;;;;17.69;50.80;100855.16;3546792;40;20081;-76
2021/06/20 23:15:23;;;;;;;7.78;3.22;;;;;;;17.61;51.91;100857.28;3566155;40;20057;-76
2021/06/20 23:17:51;;;;;;;7.07;3.13;;;;;;;17.56;51.25;100862.81;3567733;40;20053;-76
2021/06/20 23:20:23;;;;;;;5.88;2.55;;;;;;;17.48;51.00;100850.91;3565226;40;20103;-76
2021/06/20 23:22:54;;;;;;;8.48;2.83;;;;;;;17.43;51.58;100868.75;3553031;40;20058;-76
2021/06/20 23:25:24;;;;;;;8.43;3.17;;;;;;;17.37;52.15;100862.84;3547017;40;20102;-76
2021/06/20 23:27:58;;;;;;;8.52;3.05;;;;;;;17.33;51.25;100873.59;3560586;40;20073;-76
2021/06/20 23:30:28;;;;;;;8.15;2.85;;;;;;;17.26;52.81;100875.69;3566403;40;20052;-76
2021/06/20 23:32:57;;;;;;;6.55;2.75;;;;;;;17.18;53.07;100871.69;3562260;40;20802;-76
2021/06/20 23:35:24;;;;;;;6.72;2.65;;;;;;;17.15;54.01;100878.00;3565646;40;20343;-76
2021/06/20 23:37:57;;;;;;;7.28;2.60;;;;;;;17.11;51.94;100873.78;3568513;40;20080;-76
2021/06/20 23:40:27;;;;;;;7.30;3.05;;;;;;;17.07;53.36;100877.50;3562036;40;20057;-76
2021/06/20 23:42:57;;;;;;;7.18;2.63;;;;;;;17.00;53.43;100876.94;3569216;40;20056;-77
2021/06/20 23:45:26;;;;;;;5.95;2.53;;;;;;;16.92;53.21;100865.00;3557610;40;20069;-76
2021/06/20 23:47:57;;;;;;;8.07;2.50;;;;;;;16.94;52.44;100877.22;3560286;40;20090;-76
2021/06/20 23:50:25;;;;;;;8.60;2.95;;;;;;;16.88;53.56;100876.63;3551212;40;20062;-77
2021/06/20 23:52:57;;;;;;;9.00;2.92;;;;;;;16.79;52.48;100868.22;3569677;40;20068;-76